EDT,Max TemperatureF,Mean TemperatureF,Min TemperatureF,Max Dew PointF,MeanDew PointF,Min DewpointF,Max Humidity, Mean Humidity, Min Humidity, Max Sea Level PressureIn, Mean Sea Level PressureIn, Min Sea Level PressureIn, Max VisibilityMiles, Mean VisibilityMiles, Min VisibilityMiles, Max Wind SpeedMPH, Mean Wind SpeedMPH, Max Gust SpeedMPH,PrecipitationIn, CloudCover, Events, WindDirDegrees
2014-4-1,57,46,35,33,28,25,76,54,33,30.12,30.07,29.99,10,10,10,15,9,28,0.00,0,,321
2014-4-2,50,42,34,40,36,31,96,82,63,30.14,30.09,30.06,10,8,2,6,2,,0.00,2,,148
2014-4-3,63,50,39,38,25,10,89,44,13,30.14,30.07,30.01,10,10,6,9,6,,0.00,1,Rain,337
2014-4-4,43,40,37,38,34,28,97,81,58,30.09,29.97,29.80,10,6,2,16,8,23,0.18,8,Rain,100
2014-4-5,52,44,37,40,31,20,100,68,38,30.04,29.83,29.72,10,8,1,28,9,37,0.06,5,Rain,307
2014-4-6,57,44,32,28,20,13,66,43,18,30.22,30.15,30.06,10,10,10,13,8,17,0.00,0,,275
2014-4-7,50,44,37,44,33,21,97,70,33,30.22,30.07,29.72,10,7,1,14,5,26,0.29,4,Rain,102
2014-4-8,64,55,46,54,44,31,100,79,42,29.67,29.49,29.39,10,4,0,20,7,29,0.39,5,Fog-Rain,184
2014-4-9,60,48,36,34,26,13,86,47,25,30.02,29.75,29.61,10,10,10,26,10,36,0.00,1,,304
2014-4-10,55,42,30,34,22,12,69,40,26,30.21,30.11,30.04,10,10,10,18,7,26,0.00,1,,193
2014-4-11,73,60,48,49,40,33,86,52,34,30.03,29.98,29.94,10,10,10,13,6,18,0.00,5,Rain,258
2014-4-12,70,57,44,49,37,24,93,56,18,30.22,30.15,30.01,10,10,8,12,7,18,0.00,1,,283
2014-4-13,71,58,44,53,47,36,83,67,51,30.20,30.10,29.99,10,10,9,16,5,23,0.00,2,,156
2014-4-14,71,62,53,55,52,50,90,74,51,30.02,29.94,29.87,10,9,6,20,7,31,0.00,2,,178
2014-4-15,57,45,33,56,51,31,100,93,82,29.88,29.72,29.55,8,2,0,23,12,38,1.08,8,Fog-Rain-Snow,196
2014-4-16,46,36,28,30,19,13,92,53,31,30.58,30.29,29.91,10,9,0,22,15,29,0.18,1,Fog-Snow,342
2014-4-17,46,39,32,29,19,11,76,48,25,30.74,30.67,30.60,10,10,10,14,7,23,0.00,0,,86
2014-4-18,45,37,30,32,27,23,76,66,51,30.61,30.45,30.27,10,10,9,9,4,,0.00,3,,115
2014-4-19,64,50,36,36,27,18,83,46,18,30.35,30.26,30.22,10,10,7,16,5,23,0.00,0,,347
2014-4-20,55,48,39,33,24,19,73,41,28,30.50,30.42,30.33,10,10,10,15,7,23,0.00,0,,98
2014-4-21,64,49,34,40,30,16,82,54,16,30.31,30.10,29.89,10,10,10,12,3,,0.00,0,,193
2014-4-22,68,54,43,52,45,39,86,69,47,29.86,29.65,29.49,10,9,6,12,3,17,0.01,2,Rain,200
2014-4-23,59,52,44,50,37,27,80,60,39,29.79,29.59,29.46,10,10,6,28,14,36,0.00,5,,306
2014-4-24,60,50,39,29,17,12,60,31,16,30.01,29.88,29.80,10,10,10,24,16,34,0.00,0,,309
2014-4-25,61,49,39,34,22,18,61,36,22,30.04,29.94,29.79,10,10,10,13,7,18,0.00,2,Rain,149
2014-4-26,62,52,43,46,43,35,93,82,42,29.87,29.78,29.72,10,7,2,14,6,23,0.65,7,Rain-Thunderstorm,44
2014-4-27,57,49,43,45,36,32,93,63,41,30.12,29.96,29.86,10,9,2,17,8,25,0.00,4,,326
2014-4-28,64,50,39,37,33,29,77,52,30,30.15,30.07,30.01,10,10,10,16,9,22,0.00,1,,340
2014-4-29,46,44,41,39,37,34,89,73,63,30.43,30.33,30.16,10,10,5,18,12,29,0.06,7,Rain,107
2014-4-30,46,42,39,46,40,36,100,91,82,30.42,30.27,30.00,10,3,2,18,12,33,2.56,8,Rain,89